createdAt,value
2022-12-14T17:28:44.910Z,61.80
2022-12-14T17:33:54.007Z,57.17
2022-12-14T17:38:59.475Z,58.78
2022-12-14T17:44:05.352Z,60.11
2022-12-14T17:49:13.245Z,60.91
2022-12-14T17:54:24.619Z,61.38
2022-12-14T17:59:28.307Z,61.04
2022-12-14T18:04:33.715Z,61.38
2022-12-14T18:09:39.135Z,61.98
2022-12-14T18:14:45.226Z,62.24
2022-12-14T18:19:51.319Z,61.94
2022-12-14T18:24:56.721Z,61.49
2022-12-14T18:30:02.202Z,61.22
2022-12-14T18:35:09.804Z,62.29
2022-12-14T18:40:17.917Z,62.83
2022-12-14T18:45:26.405Z,63.10
2022-12-14T18:50:32.075Z,63.24
2022-12-14T18:55:37.546Z,63.28
2022-12-14T19:00:43.033Z,63.38
2022-12-14T19:05:48.607Z,63.66
2022-12-14T19:10:54.036Z,63.91
2022-12-14T19:15:59.581Z,64.14
2022-12-14T19:21:06.448Z,64.13
2022-12-14T19:26:12.306Z,64.09
2022-12-14T19:31:18.746Z,64.35
2022-12-14T19:36:24.991Z,64.26
2022-12-14T19:41:31.632Z,64.54
2022-12-14T19:46:37.221Z,64.71
2022-12-14T19:51:42.720Z,64.72
2022-12-14T19:56:49.199Z,64.60
2022-12-14T20:01:54.963Z,64.88
2022-12-14T20:07:00.903Z,65.09
2022-12-14T20:12:08.560Z,65.24
2022-12-14T20:17:15.220Z,65.36
2022-12-14T20:22:20.795Z,65.60
2022-12-14T20:27:26.693Z,65.60
2022-12-14T20:32:32.264Z,65.71
2022-12-14T20:37:38.147Z,65.86
2022-12-14T20:42:44.048Z,65.88
2022-12-14T20:47:51.370Z,65.97
2022-12-14T20:52:56.845Z,65.69
2022-12-14T20:58:02.698Z,65.39
2022-12-14T21:03:08.367Z,65.43
2022-12-14T21:08:15.731Z,65.36
2022-12-14T21:13:21.117Z,65.34
2022-12-14T21:18:26.790Z,65.51
2022-12-14T21:23:32.837Z,61.78
2022-12-14T21:28:38.348Z,63.81
2022-12-14T21:33:49.744Z,64.67
2022-12-14T21:38:54.317Z,65.12
2022-12-14T21:44:00.753Z,65.25
2022-12-14T21:49:06.975Z,65.36
2022-12-14T21:54:15.548Z,65.66
2022-12-14T21:59:38.844Z,65.75
2022-12-14T22:04:47.095Z,65.94
2022-12-14T22:09:52.696Z,66.05
2022-12-14T22:14:58.265Z,65.92
2022-12-14T22:20:04.084Z,65.68
2022-12-14T22:25:10.175Z,65.67
2022-12-14T22:30:15.641Z,66.33
2022-12-14T22:35:21.245Z,63.51
2022-12-14T22:40:26.971Z,65.27
2022-12-14T22:45:32.362Z,65.66
2022-12-14T22:50:37.760Z,65.73
2022-12-14T22:55:45.108Z,65.83
2022-12-14T23:00:54.201Z,66.34
2022-12-14T23:06:02.233Z,66.37
2022-12-14T23:11:24.975Z,66.55
2022-12-14T23:16:49.965Z,66.26
2022-12-14T23:22:13.476Z,66.14
2022-12-14T23:27:36.945Z,66.13
2022-12-14T23:33:00.166Z,66.12
2022-12-14T23:38:25.495Z,66.22
2022-12-14T23:43:48.684Z,66.43
2022-12-14T23:49:15.905Z,66.35
2022-12-14T23:54:37.259Z,66.37
